Airfield :
LOGIN :

Register | Disclaimer

   EN    FR    IT 

 










Legend :    VFR   Marginal VFR   IFR   Intensive IFR   Very Intensive IFR
Visi :
Ceiling :
>= 8 km
>= 3000ft
5 to 8 km
1000 to 3000 ft
1500m to 5 km
500 to 1000 ft
800 to 1500m
200 to 500 ft
< 800m
< 200 ft
Symbols :   Thunderstorms  Fog  Heavy snow  Heavy precipitations  Wind > 20 kt
SIGMETs :     Misc.  Thunderstorms  Icing  Turbulence  Mountain Waves  Volcanic Ashes






- Airport Elevation : 776 ft
- IATA code : RMS


ETAR - Ramstein Air Base

CURRENT METAR :
  • 301200Z AUTO 02003KT 9999 BKN009 OVC013 07/06 A3015 RMK AO2 CIG 009V011 CIG 005 RWY08 SLP221 $

EXPIRED METARs :
  • 301129Z AUTO 36003KT 9999 OVC014 07/06 A3015 RMK AO2 RAE1059 CIG 008V014 CIG 005 RWY08 SLP221 $
  • 301124Z AUTO 03005KT 9999 BKN010 OVC016 07/06 A3015 RMK AO2 RAE1059 CIG 008V010 CIG 005 RWY08 SLP221 $
  • 301059Z AUTO 01005KT 9999 OVC009 07/06 A3015 RMK AO2 RAE59 CIG 004 RWY08 SLP221 $
  • 301043Z AUTO 01004KT 9999 -RA OVC010 07/06 A3015 RMK AO2 RAB43 CIG 004 RWY08 SLP221 $
  • 301020Z AUTO 02004KT 9999 OVC010 07/06 A3016 RMK AO2 CIG 003 RWY08 SLP225 $
  • 300955Z AUTO 03005KT 9999 OVC009 06/06 A3016 RMK AO2 CIG 002 RWY08 SLP225 T00640057 $

TAF TAF ETAR
Valid from the 30 at 10:00 until the 01 at 16:00 UTC


301000Z 3010/0116 04012KT 8000 -RA SCT005 OVC010 620406 QNH3018INS
TEMPO 3010/3012 BKN008
BECMG 3019/3020 05009KT 9999 NSW OVC010 620404 QNH3021INS
TEMPO 3022/0104 BKN005
BECMG 0105/0106 05012KT 9999 BKN020 QNH3022INS
TEMPO 0106/0109 BKN015 TX08/3013Z TN03/0106Z



MET'MAP, your aeronautical weather chart ! - Copyright ORBIFLY December 2007 - Disclaimer

ORBIFLY MET'MAP TEAM :

Programming & Development : Alexandra Zaïnal
Original concept : Baudouin d'Aumeries
Technical & hardware support : Manuel Goepfert
Assistance : Marc-Olivier Méhu




SOURCES & CREDITS :

   NOAA